createdAt,value
2022-12-04T00:01:27.710Z,19.17
2022-12-04T00:06:22.588Z,19.60
2022-12-04T00:11:19.318Z,18.70
2022-12-04T00:16:16.337Z,17.43
2022-12-04T00:21:11.902Z,17.10
2022-12-04T00:26:07.436Z,17.47
2022-12-04T00:31:05.772Z,18.90
2022-12-04T00:35:59.561Z,17.77
2022-12-04T00:40:53.282Z,19.17
2022-12-04T00:45:46.805Z,18.70
2022-12-04T00:50:42.188Z,19.43
2022-12-04T00:55:35.686Z,20.80
2022-12-04T01:00:28.924Z,18.33
2022-12-04T01:05:22.543Z,19.27
2022-12-04T01:10:17.282Z,19.80
2022-12-04T01:15:11.777Z,21.17
2022-12-04T01:20:06.184Z,20.17
2022-12-04T01:24:59.700Z,21.07
2022-12-04T01:29:54.670Z,19.80
2022-12-04T01:34:50.931Z,19.70
2022-12-04T01:39:44.257Z,19.10
2022-12-04T01:44:37.522Z,20.03
2022-12-04T01:49:35.632Z,21.33
2022-12-04T01:54:32.049Z,21.77
2022-12-04T01:59:30.688Z,22.07
2022-12-04T02:04:24.469Z,22.77
2022-12-04T02:09:25.969Z,21.40
2022-12-04T02:14:26.252Z,21.03
2022-12-04T02:19:50.593Z,20.87
2022-12-04T02:24:54.169Z,19.50
2022-12-04T02:29:59.113Z,19.33
2022-12-04T02:34:58.148Z,20.73
2022-12-04T02:39:56.202Z,20.43
2022-12-04T02:44:55.384Z,19.73
2022-12-04T02:49:54.165Z,19.47
2022-12-04T02:54:52.613Z,22.93
2022-12-04T02:59:49.054Z,20.47
2022-12-04T03:04:44.100Z,20.10
2022-12-04T03:09:43.688Z,20.50
2022-12-04T03:14:41.733Z,20.40
2022-12-04T03:19:40.595Z,20.40
2022-12-04T03:24:39.050Z,20.80
2022-12-04T03:29:39.998Z,21.33
2022-12-04T03:34:40.083Z,19.30
2022-12-04T03:39:40.120Z,17.55
2022-12-04T03:44:40.248Z,19.45
2022-12-04T03:49:43.081Z,17.83
2022-12-04T03:54:44.291Z,17.80
2022-12-04T03:59:41.889Z,16.87
2022-12-04T04:04:37.657Z,16.27
2022-12-04T04:09:40.588Z,14.63
2022-12-04T04:14:58.476Z,14.40
2022-12-04T04:20:15.150Z,13.53
2022-12-04T04:25:12.483Z,12.30
2022-12-04T04:30:09.846Z,12.53
2022-12-04T04:35:12.345Z,13.07
2022-12-04T04:40:15.170Z,13.10
2022-12-04T04:45:15.067Z,12.23
2022-12-04T04:50:12.273Z,13.30
2022-12-04T04:55:07.202Z,13.37
2022-12-04T05:00:01.241Z,15.03
2022-12-04T05:04:56.716Z,17.07
2022-12-04T05:09:50.156Z,13.60
2022-12-04T05:14:43.433Z,13.53
2022-12-04T05:19:55.698Z,13.30
2022-12-04T05:24:50.519Z,12.67
2022-12-04T05:29:43.911Z,13.00
2022-12-04T05:34:39.497Z,12.60
2022-12-04T05:39:32.880Z,13.37
2022-12-04T05:44:27.567Z,12.80
2022-12-04T05:49:21.154Z,12.67
2022-12-04T05:54:14.560Z,14.77
2022-12-04T05:59:08.107Z,13.83
2022-12-04T06:04:02.910Z,13.67
2022-12-04T06:08:58.733Z,15.10
2022-12-04T06:13:52.466Z,15.97
2022-12-04T06:18:46.244Z,16.13
2022-12-04T06:23:40.854Z,16.70
2022-12-04T06:28:43.618Z,27.90
2022-12-04T06:33:37.862Z,35.00
2022-12-04T06:38:31.830Z,18.97
2022-12-04T06:43:26.574Z,18.80
2022-12-04T06:48:19.949Z,21.13
2022-12-04T06:53:13.095Z,17.17
2022-12-04T06:58:06.351Z,16.20
2022-12-04T07:03:00.958Z,14.20
2022-12-04T07:07:54.232Z,15.13
2022-12-04T07:12:48.063Z,16.90
2022-12-04T07:17:41.242Z,17.57
2022-12-04T07:22:35.940Z,18.03
2022-12-04T07:27:31.771Z,18.43
2022-12-04T07:32:25.119Z,17.87
2022-12-04T07:37:18.325Z,20.03
2022-12-04T07:42:13.038Z,18.57
2022-12-04T07:47:06.356Z,18.13
2022-12-04T07:52:01.564Z,16.20
2022-12-04T07:56:54.715Z,18.13
2022-12-04T08:01:49.262Z,18.67
2022-12-04T08:06:42.591Z,19.50
2022-12-04T08:11:36.091Z,19.40
2022-12-04T08:16:33.014Z,20.57
2022-12-04T08:21:30.005Z,19.63
2022-12-04T08:26:25.116Z,21.07
2022-12-04T08:31:21.491Z,21.27
2022-12-04T08:36:16.741Z,20.37
2022-12-04T08:41:14.816Z,20.47
2022-12-04T08:46:10.578Z,19.73
2022-12-04T08:51:05.078Z,21.17
2022-12-04T08:55:58.572Z,21.03
2022-12-04T09:00:53.301Z,20.50
2022-12-04T09:05:47.089Z,22.90
2022-12-04T09:10:40.810Z,22.20
2022-12-04T09:15:34.515Z,20.20
2022-12-04T09:20:29.585Z,23.27
2022-12-04T09:25:25.423Z,23.10
2022-12-04T09:30:18.929Z,21.90
2022-12-04T09:35:12.222Z,21.20
2022-12-04T09:40:43.413Z,16.47
2022-12-04T09:45:59.063Z,16.77
2022-12-04T09:51:27.612Z,17.07
2022-12-04T09:56:50.980Z,16.20
2022-12-04T10:02:45.268Z,15.30
2022-12-04T10:08:38.868Z,14.93
2022-12-04T10:14:48.529Z,12.43
2022-12-04T10:21:19.148Z,10.43
2022-12-04T10:26:44.315Z,10.03
2022-12-04T10:32:34.953Z,11.60
2022-12-04T10:37:33.180Z,11.93
2022-12-04T10:42:32.640Z,10.03
2022-12-04T10:47:28.583Z,10.17
2022-12-04T10:52:28.151Z,10.10
2022-12-04T10:57:21.684Z,9.03
2022-12-04T11:02:24.905Z,9.73
2022-12-04T11:07:27.940Z,11.00
2022-12-04T11:12:26.621Z,10.90
2022-12-04T11:17:26.836Z,10.97
2022-12-04T11:22:24.116Z,12.15
2022-12-04T11:27:31.944Z,9.33
2022-12-04T11:32:35.462Z,9.70
2022-12-04T11:37:35.894Z,9.73
2022-12-04T11:42:38.183Z,11.97
2022-12-04T12:39:56.784Z,9.97
2022-12-04T13:01:11.312Z,11.47
2022-12-04T13:56:56.046Z,14.35
2022-12-04T14:03:05.039Z,14.88
2022-12-04T14:08:08.823Z,14.00
2022-12-04T14:13:07.157Z,16.63
2022-12-04T14:18:17.530Z,16.48
2022-12-04T14:28:45.321Z,17.00
2022-12-04T14:33:48.861Z,17.40
2022-12-04T14:38:52.853Z,16.02
2022-12-04T14:43:52.449Z,18.77
2022-12-04T14:49:05.316Z,16.77
2022-12-04T14:54:13.932Z,16.33
2022-12-04T14:59:16.969Z,17.77
2022-12-04T15:04:18.528Z,17.37
2022-12-04T15:09:41.428Z,20.23
2022-12-04T15:14:49.763Z,17.73
2022-12-04T15:19:49.408Z,20.73
2022-12-04T15:25:02.421Z,19.57
2022-12-04T15:30:01.135Z,24.30
2022-12-04T15:34:57.040Z,22.30
2022-12-04T15:39:53.115Z,29.27
2022-12-04T15:45:24.442Z,24.53
2022-12-04T15:50:29.461Z,23.10
2022-12-04T15:55:26.861Z,18.20
2022-12-04T16:00:27.700Z,26.93
2022-12-04T16:05:35.642Z,23.10
2022-12-04T16:10:37.065Z,21.67
2022-12-04T16:15:37.928Z,19.20
2022-12-04T16:20:31.787Z,19.87
2022-12-04T16:25:26.831Z,25.13
2022-12-04T16:30:23.381Z,20.40
2022-12-04T16:35:18.184Z,20.43
2022-12-04T16:40:16.262Z,26.80
2022-12-04T16:45:22.406Z,24.83
2022-12-04T16:50:17.770Z,19.20
2022-12-04T16:55:22.117Z,20.50
2022-12-04T17:00:30.941Z,20.00
2022-12-04T17:05:30.074Z,20.13
2022-12-04T17:10:24.728Z,20.33
2022-12-04T17:15:21.010Z,22.77
2022-12-04T17:20:18.286Z,19.63
2022-12-04T17:25:13.842Z,21.87
2022-12-04T17:30:12.406Z,20.40
2022-12-04T17:35:13.346Z,24.30
2022-12-04T17:40:32.415Z,22.93
2022-12-04T17:45:26.129Z,22.93
2022-12-04T17:50:20.055Z,20.60
2022-12-04T17:55:21.414Z,19.67
2022-12-04T18:00:47.891Z,19.60
2022-12-04T18:05:41.537Z,21.47
2022-12-04T18:29:10.405Z,21.77
2022-12-04T18:47:47.012Z,19.80
2022-12-04T18:53:22.082Z,19.30
2022-12-04T18:58:56.914Z,18.80
2022-12-04T19:04:47.174Z,21.03
2022-12-04T19:10:13.291Z,18.73
2022-12-04T19:15:20.065Z,22.47
2022-12-04T19:26:39.880Z,19.43
2022-12-04T19:31:58.859Z,20.70
2022-12-04T19:37:08.413Z,19.20
2022-12-04T19:42:10.707Z,19.43
2022-12-04T19:47:12.895Z,18.33
2022-12-04T19:52:06.800Z,19.07
2022-12-04T19:57:13.138Z,17.37
2022-12-04T20:02:12.803Z,18.80
2022-12-04T20:07:12.631Z,23.10
2022-12-04T20:12:26.621Z,15.30
2022-12-04T20:17:34.906Z,16.60
2022-12-04T20:22:30.353Z,18.63
2022-12-04T20:27:24.701Z,16.00
2022-12-04T20:32:23.994Z,16.63
2022-12-04T20:37:23.636Z,14.97
2022-12-04T20:42:33.854Z,16.23
2022-12-04T20:47:28.494Z,24.10
2022-12-04T20:52:31.899Z,14.47
2022-12-04T20:57:28.560Z,15.10
2022-12-04T21:02:36.192Z,12.73
2022-12-04T21:07:33.332Z,12.90
2022-12-04T21:12:46.486Z,11.97
2022-12-04T21:17:52.669Z,11.40
2022-12-04T21:23:09.029Z,10.90
2022-12-04T21:28:05.780Z,9.43
2022-12-04T21:33:04.470Z,8.60
2022-12-04T21:38:13.028Z,8.90
2022-12-04T21:43:10.086Z,7.57
2022-12-04T21:48:03.820Z,9.50
2022-12-04T21:53:00.394Z,9.23
2022-12-04T21:57:59.995Z,8.07
2022-12-04T22:02:56.932Z,9.18
2022-12-04T22:07:53.702Z,10.10
2022-12-04T22:12:50.761Z,10.43
2022-12-04T22:17:48.971Z,9.00
2022-12-04T22:22:42.699Z,11.00
2022-12-04T22:27:54.796Z,10.60
2022-12-04T22:32:54.864Z,10.00
2022-12-04T22:37:53.671Z,10.90
2022-12-04T22:42:49.438Z,9.43
2022-12-04T22:47:44.507Z,8.77
2022-12-04T22:52:39.888Z,9.80
2022-12-04T22:57:36.357Z,8.70
2022-12-04T23:02:34.274Z,8.17
2022-12-04T23:07:37.088Z,7.07
2022-12-04T23:12:32.093Z,6.93
2022-12-04T23:17:25.568Z,5.83
2022-12-04T23:22:22.748Z,5.77
2022-12-04T23:27:18.642Z,5.73
2022-12-04T23:32:20.090Z,5.57
2022-12-04T23:37:20.279Z,5.73
2022-12-04T23:42:14.886Z,5.70
2022-12-04T23:47:08.497Z,8.20
2022-12-04T23:52:05.390Z,5.67
2022-12-04T23:56:58.874Z,4.83
